Time;durP1;ratioP1;P1;durP2;ratioP2;P2;SDS_P1;SDS_P2;PMS_P1;PMS_P2;Temp;Humidity;BMP_temperature;BMP_pressure;BME280_temperature;BME280_humidity;BME280_pressure;Samples;Min_cycle;Max_cycle;Signal;HPM_P1;HPM_P2
2023/09/05 00:00:16;;;;;;;6.60;4.00;;;;;;;11.37;84.32;101706.88;108989;277;39337;-71
2023/09/05 00:03:10;;;;;;;7.60;4.50;;;;;;;11.34;84.47;101707.98;108999;277;38536;-72
2023/09/05 00:05:45;;;;;;;7.90;4.20;;;;;;;11.30;84.35;101704.58;109002;277;38150;-70
2023/09/05 00:08:19;;;;;;;6.70;3.80;;;;;;;11.27;84.51;101707.95;108935;277;38580;-70
2023/09/05 00:10:53;;;;;;;6.70;4.30;;;;;;;11.24;84.68;101713.08;108980;277;38326;-71
2023/09/05 00:13:27;;;;;;;6.90;3.70;;;;;;;11.23;84.80;101712.75;108807;277;175328;-74
2023/09/05 00:16:02;;;;;;;7.30;4.00;;;;;;;11.24;84.91;101709.59;108983;277;40098;-71
2023/09/05 00:18:36;;;;;;;7.00;4.10;;;;;;;11.23;84.91;101710.14;108933;277;38201;-71
2023/09/05 00:21:10;;;;;;;9.00;3.80;;;;;;;11.19;84.84;101708.11;108930;277;38799;-71
2023/09/05 00:23:44;;;;;;;6.80;3.80;;;;;;;11.13;84.77;101708.91;108912;277;38499;-71
2023/09/05 00:26:18;;;;;;;6.30;3.70;;;;;;;11.10;84.89;101710.54;108946;277;39519;-74
2023/09/05 00:28:52;;;;;;;7.70;3.80;;;;;;;11.09;85.12;101712.67;108979;273;38458;-72
2023/09/05 00:31:26;;;;;;;6.80;4.20;;;;;;;11.09;85.29;101713.35;108959;277;38169;-72
2023/09/05 00:34:00;;;;;;;6.20;3.90;;;;;;;11.08;85.34;101713.38;108928;277;38170;-71
2023/09/05 00:36:34;;;;;;;6.20;4.40;;;;;;;11.07;85.39;101710.08;108932;277;38144;-71
2023/09/05 00:39:09;;;;;;;9.10;5.00;;;;;;;11.06;85.46;101710.98;108967;277;38600;-71
2023/09/05 00:41:42;;;;;;;6.40;4.50;;;;;;;11.03;85.60;101709.45;108989;277;38350;-72
2023/09/05 00:44:17;;;;;;;7.10;4.80;;;;;;;11.01;85.64;101705.11;108942;277;38967;-72
2023/09/05 00:46:52;;;;;;;7.90;4.60;;;;;;;11.00;85.88;101707.23;108973;277;38144;-71
2023/09/05 00:49:27;;;;;;;5.90;4.60;;;;;;;10.99;85.97;101709.17;108948;277;39603;-71
2023/09/05 00:52:01;;;;;;;7.70;4.00;;;;;;;10.99;86.08;101707.61;108982;277;38226;-71
2023/09/05 00:54:36;;;;;;;8.50;4.60;;;;;;;11.02;86.25;101707.02;108956;277;39413;-71
2023/09/05 00:57:10;;;;;;;7.00;4.90;;;;;;;11.04;86.34;101705.08;108240;277;900793;-71
2023/09/05 00:59:44;;;;;;;6.70;4.70;;;;;;;11.03;86.28;101703.35;109035;277;39803;-72
2023/09/05 01:02:18;;;;;;;8.00;4.00;;;;;;;10.99;86.21;101700.45;109032;277;38878;-70
2023/09/05 01:04:52;;;;;;;12.70;5.10;;;;;;;10.99;86.59;101699.05;108966;277;39558;-71
2023/09/05 01:07:38;;;;;;;7.20;4.90;;;;;;;10.98;86.63;101702.73;108976;277;39708;-71
2023/09/05 01:10:16;;;;;;;6.90;4.50;;;;;;;11.01;86.90;101698.31;108929;277;39614;-71
2023/09/05 01:12:50;;;;;;;8.60;5.10;;;;;;;11.03;87.13;101693.39;108899;277;40443;-71
2023/09/05 01:15:24;;;;;;;9.00;4.40;;;;;;;11.05;87.22;101693.35;108927;277;38157;-72
2023/09/05 01:17:58;;;;;;;6.40;4.70;;;;;;;11.05;87.17;101691.61;108948;277;38455;-72
2023/09/05 01:20:39;;;;;;;8.00;4.70;;;;;;;11.03;86.83;101695.49;108920;277;39607;-72
2023/09/05 01:23:17;;;;;;;7.00;4.10;;;;;;;10.97;86.61;101692.29;108922;277;38370;-73
2023/09/05 01:25:51;;;;;;;9.00;4.30;;;;;;;10.94;86.76;101689.73;108916;277;38359;-73
2023/09/05 01:28:26;;;;;;;7.30;4.80;;;;;;;10.92;86.87;101694.48;108902;277;38469;-71
2023/09/05 01:31:00;;;;;;;7.60;4.90;;;;;;;10.91;86.96;101696.07;108963;277;38954;-71
2023/09/05 01:33:38;;;;;;;7.10;5.40;;;;;;;10.92;87.05;101696.73;108900;277;38802;-71
2023/09/05 01:36:12;;;;;;;9.00;5.20;;;;;;;10.92;87.10;101695.70;108949;277;39628;-72
2023/09/05 01:38:46;;;;;;;7.40;5.00;;;;;;;10.91;87.13;101695.54;108947;277;38285;-70
2023/09/05 01:41:20;;;;;;;8.70;4.90;;;;;;;10.90;87.16;101696.44;108923;277;39686;-71
2023/09/05 01:43:54;;;;;;;7.50;5.40;;;;;;;10.88;87.05;101698.56;108878;277;40510;-71
2023/09/05 01:46:28;;;;;;;7.40;5.00;;;;;;;10.83;86.84;101695.50;108935;277;39206;-72
2023/09/05 01:49:02;;;;;;;8.00;4.70;;;;;;;10.78;86.89;101698.02;108901;277;38288;-72
2023/09/05 01:51:36;;;;;;;8.30;4.40;;;;;;;10.73;86.83;101694.63;108892;277;38302;-71
2023/09/05 01:54:10;;;;;;;7.10;4.90;;;;;;;10.70;86.93;101694.67;108876;277;38413;-71
2023/09/05 01:56:44;;;;;;;6.80;5.00;;;;;;;10.68;86.96;101692.44;108932;277;38476;-71
2023/09/05 01:59:19;;;;;;;6.20;4.70;;;;;;;10.67;87.10;101694.03;108884;277;38367;-70
2023/09/05 02:01:53;;;;;;;6.70;5.10;;;;;;;10.68;87.46;101694.20;108940;277;38745;-71
2023/09/05 02:04:27;;;;;;;6.40;4.40;;;;;;;10.67;87.42;101688.63;108904;277;38205;-71
2023/09/05 02:07:01;;;;;;;8.20;5.30;;;;;;;10.65;87.41;101690.05;108933;277;38600;-72
2023/09/05 02:09:35;;;;;;;7.10;4.70;;;;;;;10.64;87.29;101688.51;108961;277;39355;-73
2023/09/05 02:12:09;;;;;;;6.90;4.70;;;;;;;10.60;87.11;101681.59;108880;277;39373;-73
2023/09/05 02:14:47;;;;;;;7.10;5.30;;;;;;;10.57;87.31;101683.38;108934;277;39435;-72
2023/09/05 02:17:23;;;;;;;7.70;5.10;;;;;;;10.55;87.37;101687.96;108904;277;38460;-72
2023/09/05 02:19:57;;;;;;;7.00;4.80;;;;;;;10.52;87.25;101691.50;108261;277;898502;-71
2023/09/05 02:22:31;;;;;;;7.10;4.80;;;;;;;10.49;87.30;101695.21;108925;277;38627;-71
2023/09/05 02:25:07;;;;;;;7.30;4.40;;;;;;;10.47;87.40;101690.54;108894;277;38149;-72
2023/09/05 02:27:41;;;;;;;8.00;4.70;;;;;;;10.44;87.32;101685.54;108906;277;38220;-72
2023/09/05 02:30:16;;;;;;;6.90;5.00;;;;;;;10.43;87.57;101684.15;108897;277;38706;-71
2023/09/05 02:32:54;;;;;;;6.10;4.60;;;;;;;10.41;87.48;101681.74;108880;277;38197;-72
2023/09/05 02:35:28;;;;;;;7.70;4.90;;;;;;;10.37;87.55;101682.69;108908;277;38218;-71
2023/09/05 02:38:02;;;;;;;9.20;5.20;;;;;;;10.34;87.87;101680.64;108911;277;39454;-71
2023/09/05 02:40:36;;;;;;;8.80;4.80;;;;;;;10.36;88.07;101674.67;108884;277;39491;-71
2023/09/05 02:43:10;;;;;;;6.60;4.50;;;;;;;10.37;88.10;101675.17;108884;277;39299;-71
2023/09/05 02:45:52;;;;;;;6.80;5.50;;;;;;;10.38;88.26;101679.16;108897;277;39386;-72
2023/09/05 02:48:26;;;;;;;5.90;4.60;;;;;;;10.38;88.18;101679.00;108924;277;38311;-73
2023/09/05 02:51:07;;;;;;;7.80;5.10;;;;;;;10.37;88.19;101678.33;108920;277;38486;-72
2023/09/05 02:53:42;;;;;;;6.10;5.10;;;;;;;10.37;88.18;101686.17;108927;277;38146;-71
2023/09/05 02:56:18;;;;;;;7.70;4.90;;;;;;;10.37;88.33;101687.91;108942;277;38276;-72
2023/09/05 02:58:53;;;;;;;8.50;4.90;;;;;;;10.35;88.19;101688.30;108937;277;39709;-72
2023/09/05 03:01:27;;;;;;;7.10;4.70;;;;;;;10.33;88.03;101690.77;108924;277;38185;-70
2023/09/05 03:04:01;;;;;;;6.60;4.80;;;;;;;10.32;88.30;101692.88;108849;277;38156;-72
2023/09/05 03:06:35;;;;;;;8.30;4.70;;;;;;;10.35;88.56;101695.11;108938;277;38243;-72
2023/09/05 03:09:09;;;;;;;6.80;4.90;;;;;;;10.37;88.44;101696.27;108885;277;38483;-71
2023/09/05 03:11:44;;;;;;;7.10;5.20;;;;;;;10.38;88.15;101696.27;108909;277;40633;-73
2023/09/05 03:14:18;;;;;;;6.60;4.30;;;;;;;10.38;88.07;101693.30;109035;277;41394;-73
2023/09/05 03:16:52;;;;;;;7.20;4.90;;;;;;;10.33;87.98;101690.24;108879;277;38802;-73
2023/09/05 03:19:26;;;;;;;7.80;4.90;;;;;;;10.29;88.12;101689.08;108850;277;40250;-73
2023/09/05 03:22:00;;;;;;;8.30;4.90;;;;;;;10.26;88.06;101687.55;108930;277;39362;-72
2023/09/05 03:24:34;;;;;;;5.30;4.80;;;;;;;10.25;88.41;101687.91;108934;277;38612;-70
2023/09/05 03:27:08;;;;;;;7.10;4.90;;;;;;;10.22;88.52;101687.94;108941;277;38703;-73
2023/09/05 03:29:42;;;;;;;6.70;5.40;;;;;;;10.21;88.66;101688.30;108918;278;38138;-73
2023/09/05 03:32:16;;;;;;;6.70;5.20;;;;;;;10.21;88.83;101689.70;108902;277;38294;-73
2023/09/05 03:34:51;;;;;;;7.70;5.50;;;;;;;10.22;88.89;101692.82;108928;277;38644;-71
2023/09/05 03:37:25;;;;;;;7.50;5.20;;;;;;;10.23;88.78;101690.55;108808;277;175330;-71
2023/09/05 03:39:59;;;;;;;6.60;5.30;;;;;;;10.20;88.64;101691.98;108873;277;39355;-73
2023/09/05 03:42:33;;;;;;;5.40;4.30;;;;;;;10.18;88.51;101689.73;108907;277;38261;-73
2023/09/05 03:45:11;;;;;;;7.80;5.20;;;;;;;10.13;88.53;101692.08;108906;277;38805;-73
2023/09/05 03:47:45;;;;;;;6.20;4.60;;;;;;;10.10;88.81;101698.06;108947;277;38253;-71
2023/09/05 03:50:19;;;;;;;6.00;4.80;;;;;;;10.11;88.99;101702.23;108885;277;38471;-73
2023/09/05 03:52:53;;;;;;;7.00;5.30;;;;;;;10.11;89.14;101707.63;108891;277;38485;-70
2023/09/05 03:55:27;;;;;;;7.70;5.20;;;;;;;10.12;89.17;101709.02;108945;277;38498;-72
2023/09/05 03:58:00;;;;;;;6.40;4.90;;;;;;;10.12;89.14;101707.45;108896;277;38507;-71
2023/09/05 04:00:36;;;;;;;6.90;5.10;;;;;;;10.13;89.14;101702.55;108911;277;38341;-71
2023/09/05 04:03:10;;;;;;;8.60;5.10;;;;;;;10.12;88.95;101703.27;108921;277;39669;-72
2023/09/05 04:05:45;;;;;;;7.00;4.70;;;;;;;10.12;89.00;101703.27;108939;277;38227;-72
2023/09/05 04:08:19;;;;;;;6.50;5.00;;;;;;;10.12;89.23;101703.09;108957;277;38252;-70
2023/09/05 04:10:59;;;;;;;6.70;5.00;;;;;;;10.14;89.58;101706.71;108930;277;38199;-71
2023/09/05 04:13:36;;;;;;;7.00;5.20;;;;;;;10.16;89.73;101705.98;108887;277;39149;-71
2023/09/05 04:16:10;;;;;;;5.70;5.10;;;;;;;10.17;89.88;101703.88;108874;277;38458;-71
2023/09/05 04:18:44;;;;;;;5.60;4.70;;;;;;;10.17;89.78;101707.71;108911;277;38170;-71
2023/09/05 04:21:19;;;;;;;7.30;4.90;;;;;;;10.18;89.84;101711.52;108949;277;38427;-70
2023/09/05 04:23:53;;;;;;;8.40;5.10;;;;;;;10.19;89.95;101710.30;108913;277;38610;-70
2023/09/05 04:26:28;;;;;;;6.70;4.30;;;;;;;10.24;90.25;101715.65;108881;277;38248;-72
2023/09/05 04:29:04;;;;;;;7.60;4.80;;;;;;;10.30;90.32;101716.63;108882;277;38611;-72
2023/09/05 04:31:38;;;;;;;7.90;5.00;;;;;;;10.35;90.32;101716.91;108903;277;38205;-71
2023/09/05 04:34:12;;;;;;;5.40;4.70;;;;;;;10.42;90.62;101717.84;108902;277;38169;-74
2023/09/05 04:36:46;;;;;;;7.30;5.00;;;;;;;10.47;90.70;101717.05;108853;277;38192;-70
2023/09/05 04:39:21;;;;;;;6.60;4.40;;;;;;;10.51;90.83;101720.48;108917;277;39612;-70
2023/09/05 04:41:57;;;;;;;8.50;5.20;;;;;;;10.57;91.03;101722.30;108903;277;38854;-71
2023/09/05 04:44:32;;;;;;;8.80;4.60;;;;;;;10.66;91.20;101715.86;108907;277;38746;-71
2023/09/05 04:47:23;;;;;;;6.20;4.70;;;;;;;10.73;91.27;101715.23;108947;277;38719;-74
2023/09/05 04:49:58;;;;;;;5.60;4.80;;;;;;;10.81;91.60;101710.02;108874;277;38335;-72
2023/09/05 04:52:34;;;;;;;6.70;4.50;;;;;;;10.93;92.08;101709.13;108940;277;38181;-71
2023/09/05 04:55:12;;;;;;;6.40;4.60;;;;;;;11.05;92.39;101709.24;108914;277;38802;-71
2023/09/05 04:57:47;;;;;;;8.50;4.40;;;;;;;11.18;92.63;101709.01;108781;277;175030;-71
2023/09/05 05:00:23;;;;;;;7.90;4.70;;;;;;;11.29;92.57;101708.77;108908;277;38792;-72
2023/09/05 05:02:57;;;;;;;7.00;5.00;;;;;;;11.43;92.59;101706.59;108884;277;38914;-74
2023/09/05 05:05:32;;;;;;;5.60;5.00;;;;;;;11.53;92.72;101706.73;108935;277;38587;-70
2023/09/05 05:08:09;;;;;;;7.50;4.60;;;;;;;11.65;92.78;101706.30;108860;277;38265;-71
2023/09/05 05:10:44;;;;;;;5.80;4.40;;;;;;;11.75;92.82;101702.95;108953;277;38705;-73
2023/09/05 05:13:19;;;;;;;5.30;4.60;;;;;;;11.85;93.01;101701.70;108929;277;38189;-71
2023/09/05 05:15:53;;;;;;;8.00;5.20;;;;;;;11.99;92.98;101701.76;108919;277;38226;-73
2023/09/05 05:18:27;;;;;;;7.80;5.20;;;;;;;12.12;93.20;101703.55;108894;277;38766;-72
2023/09/05 05:21:01;;;;;;;9.60;5.40;;;;;;;12.24;93.38;101705.18;108912;277;38162;-73
2023/09/05 05:23:35;;;;;;;8.80;4.80;;;;;;;12.37;93.36;101708.03;108912;277;38456;-71
2023/09/05 05:26:09;;;;;;;7.30;4.80;;;;;;;12.50;93.40;101710.02;108894;277;38150;-73
2023/09/05 05:28:44;;;;;;;6.80;5.30;;;;;;;12.70;95.37;101711.61;108929;277;39409;-72
2023/09/05 05:31:18;;;;;;;6.30;5.00;;;;;;;13.03;99.71;101709.52;108935;277;37976;-72
2023/09/05 05:33:52;;;;;;;7.60;5.00;;;;;;;13.84;100.00;101701.08;108901;277;38470;-72
2023/09/05 05:36:26;;;;;;;6.00;4.00;;;;;;;14.95;100.00;101699.08;108903;277;38142;-72
2023/09/05 05:39:00;;;;;;;9.10;4.90;;;;;;;16.28;100.00;101697.94;108887;277;39117;-74
2023/09/05 05:41:35;;;;;;;6.10;3.80;;;;;;;17.53;99.47;101693.95;108967;277;39656;-73
2023/09/05 05:44:10;;;;;;;5.90;3.60;;;;;;;18.63;91.10;101697.16;108932;277;38479;-74
2023/09/05 05:46:44;;;;;;;5.70;3.70;;;;;;;19.33;83.71;101694.26;108937;277;38168;-74
2023/09/05 05:49:18;;;;;;;6.30;3.40;;;;;;;19.72;79.58;101694.45;108929;277;38742;-73
2023/09/05 05:51:52;;;;;;;6.40;3.90;;;;;;;20.00;76.17;101699.96;108949;277;39323;-73
2023/09/05 05:54:26;;;;;;;6.00;4.30;;;;;;;19.82;74.04;101703.25;108863;277;39624;-72
2023/09/05 05:57:02;;;;;;;7.10;4.30;;;;;;;19.50;72.73;101705.02;108902;277;38194;-73
2023/09/05 05:59:36;;;;;;;5.60;4.20;;;;;;;19.53;72.15;101701.85;108915;277;40204;-73
2023/09/05 06:02:10;;;;;;;6.00;4.30;;;;;;;20.17;73.27;101700.59;108943;277;39597;-72
2023/09/05 06:04:45;;;;;;;4.50;3.70;;;;;;;21.15;73.71;101697.31;108882;277;38448;-71
2023/09/05 06:07:20;;;;;;;7.00;4.20;;;;;;;22.23;69.71;101697.92;108937;277;38182;-75
2023/09/05 06:09:54;;;;;;;7.20;4.30;;;;;;;23.22;66.63;101695.72;108893;277;38192;-70
2023/09/05 06:12:28;;;;;;;7.80;4.10;;;;;;;23.93;61.99;101691.70;108919;277;39649;-73
2023/09/05 06:15:04;;;;;;;7.00;4.10;;;;;;;24.19;57.86;101689.22;108913;277;38366;-74
2023/09/05 06:17:38;;;;;;;7.50;4.00;;;;;;;24.07;56.83;101687.11;108893;277;39453;-72
2023/09/05 06:20:14;;;;;;;4.60;3.70;;;;;;;23.87;55.97;101687.10;108930;277;38162;-75
2023/09/05 06:22:49;;;;;;;5.90;3.30;;;;;;;23.84;54.73;101692.50;108938;277;39750;-75
2023/09/05 06:25:23;;;;;;;8.30;3.90;;;;;;;23.67;53.90;101697.14;108897;277;38282;-77
2023/09/05 06:27:59;;;;;;;7.80;3.50;;;;;;;23.22;54.15;101698.40;108942;277;38166;-72
2023/09/05 06:30:33;;;;;;;7.70;4.10;;;;;;;22.78;54.58;101698.73;108887;277;38613;-72
2023/09/05 06:33:07;;;;;;;7.20;4.00;;;;;;;22.33;55.12;101695.72;108890;277;40074;-72
2023/09/05 06:35:41;;;;;;;7.60;4.00;;;;;;;21.94;55.87;101697.30;108803;277;175575;-74
2023/09/05 06:38:15;;;;;;;7.80;4.00;;;;;;;21.66;56.29;101697.02;108941;277;39646;-72
2023/09/05 06:40:50;;;;;;;8.00;4.20;;;;;;;21.43;56.89;101692.78;108907;277;38164;-72
2023/09/05 06:43:24;;;;;;;8.70;4.20;;;;;;;21.22;57.41;101694.58;108927;277;38181;-72
2023/09/05 06:46:06;;;;;;;6.90;3.60;;;;;;;21.00;58.03;101691.67;108938;277;38184;-72
2023/09/05 06:48:41;;;;;;;6.60;3.80;;;;;;;20.86;58.91;101692.88;108237;277;892501;-72
2023/09/05 06:51:15;;;;;;;5.90;3.60;;;;;;;20.73;58.97;101693.09;108889;277;38166;-72
2023/09/05 06:53:49;;;;;;;6.40;3.60;;;;;;;20.59;58.84;101693.42;108906;277;38588;-72
2023/09/05 06:56:23;;;;;;;5.50;3.70;;;;;;;20.47;58.79;101691.46;108424;277;596558;-71
2023/09/05 06:58:57;;;;;;;7.40;3.60;;;;;;;20.38;58.88;101691.42;108886;277;39218;-72
2023/09/05 07:01:32;;;;;;;8.50;3.60;;;;;;;20.38;59.23;101688.24;108900;277;38479;-72
2023/09/05 07:04:07;;;;;;;6.60;3.90;;;;;;;20.46;59.26;101690.08;108876;277;39351;-72
2023/09/05 07:06:41;;;;;;;9.70;3.90;;;;;;;20.52;59.04;101689.38;108888;277;38019;-73
2023/09/05 07:09:15;;;;;;;11.40;4.50;;;;;;;20.68;59.19;101691.46;108910;277;38451;-72
2023/09/05 07:11:49;;;;;;;7.00;4.20;;;;;;;20.87;58.55;101689.44;108923;277;38733;-72
2023/09/05 07:14:23;;;;;;;8.00;3.80;;;;;;;20.99;58.52;101690.31;108915;277;38702;-72
2023/09/05 07:16:57;;;;;;;6.70;3.50;;;;;;;21.14;58.32;101688.86;108920;277;38226;-74
2023/09/05 07:19:31;;;;;;;7.40;3.90;;;;;;;21.27;58.62;101696.39;108919;277;39044;-74
2023/09/05 07:22:05;;;;;;;7.00;3.50;;;;;;;21.37;58.37;101700.23;108971;277;38178;-74
2023/09/05 07:24:39;;;;;;;7.60;3.20;;;;;;;21.36;57.92;101699.55;108905;277;38490;-73
2023/09/05 07:27:15;;;;;;;5.30;3.20;;;;;;;21.37;58.13;101702.70;108909;277;38435;-72
2023/09/05 07:29:49;;;;;;;6.90;3.20;;;;;;;21.37;58.01;101703.62;108885;277;38185;-74
2023/09/05 07:32:23;;;;;;;9.50;3.60;;;;;;;21.33;57.65;101704.76;108992;277;38164;-72
2023/09/05 07:34:57;;;;;;;7.90;3.20;;;;;;;21.29;57.52;101707.98;108893;277;38197;-71
2023/09/05 07:37:31;;;;;;;6.60;3.30;;;;;;;21.28;57.57;101706.12;108935;277;38443;-73
2023/09/05 07:40:11;;;;;;;4.40;3.00;;;;;;;21.33;57.89;101702.10;108759;277;173680;-74
2023/09/05 07:42:45;;;;;;;6.30;3.00;;;;;;;21.41;57.42;101702.64;108919;277;38199;-75
2023/09/05 07:45:21;;;;;;;6.30;2.70;;;;;;;21.50;57.26;101699.44;108897;277;38463;-73
2023/09/05 07:47:55;;;;;;;6.60;2.90;;;;;;;21.60;56.88;101700.88;108931;277;39438;-71
2023/09/05 07:50:29;;;;;;;14.80;3.90;;;;;;;21.69;55.87;101702.69;108953;277;39598;-70
2023/09/05 07:53:03;;;;;;;7.20;3.00;;;;;;;21.73;55.14;101706.68;108878;277;38619;-72
2023/09/05 07:55:37;;;;;;;6.30;3.10;;;;;;;21.80;55.21;101709.64;108205;277;891669;-74
2023/09/05 07:58:12;;;;;;;5.60;2.80;;;;;;;21.92;55.82;101709.36;108907;277;38782;-75
2023/09/05 08:00:47;;;;;;;5.20;2.90;;;;;;;22.09;55.95;101712.73;108953;277;38671;-75
2023/09/05 08:03:21;;;;;;;5.20;2.80;;;;;;;22.33;55.69;101709.02;108920;277;38858;-71
2023/09/05 08:05:55;;;;;;;7.40;2.80;;;;;;;22.71;55.57;101712.52;108879;277;39377;-73
2023/09/05 08:08:29;;;;;;;6.30;2.90;;;;;;;23.12;54.53;101709.73;108910;277;38416;-73
2023/09/05 08:11:03;;;;;;;7.00;2.80;;;;;;;23.68;55.64;101707.95;108915;277;39080;-74
2023/09/05 08:13:37;;;;;;;3.80;2.40;;;;;;;24.39;52.40;101708.08;108933;277;38238;-74
2023/09/05 08:16:11;;;;;;;4.70;2.40;;;;;;;25.13;50.97;101702.77;108938;277;39602;-75
2023/09/05 08:18:45;;;;;;;4.60;2.70;;;;;;;26.04;48.58;101705.02;108921;277;39244;-76
2023/09/05 08:21:19;;;;;;;6.00;2.40;;;;;;;26.94;46.76;101709.88;108965;277;39526;-77
2023/09/05 08:23:53;;;;;;;4.30;2.50;;;;;;;27.87;44.55;101706.39;108912;277;38181;-75
2023/09/05 08:26:27;;;;;;;4.50;2.60;;;;;;;28.72;41.86;101705.11;108916;277;38277;-76
2023/09/05 08:29:03;;;;;;;3.20;2.00;;;;;;;29.53;40.33;101701.70;108914;277;38251;-73
2023/09/05 08:31:37;;;;;;;4.60;2.30;;;;;;;30.20;38.21;101702.83;108955;277;38326;-76
2023/09/05 08:34:11;;;;;;;4.60;2.20;;;;;;;30.69;37.18;101698.98;108908;277;38471;-75
2023/09/05 08:36:46;;;;;;;4.50;2.60;;;;;;;31.13;36.36;101699.60;108891;277;38229;-76
2023/09/05 08:39:19;;;;;;;5.60;2.30;;;;;;;31.39;35.26;101701.08;108903;277;38373;-74
2023/09/05 08:41:54;;;;;;;3.30;2.10;;;;;;;31.55;34.60;101700.11;108910;277;39751;-76
2023/09/05 08:44:28;;;;;;;4.00;2.20;;;;;;;31.66;33.82;101699.43;108931;277;38478;-77
2023/09/05 08:47:02;;;;;;;4.30;2.20;;;;;;;31.76;33.14;101698.03;108908;277;38493;-77
2023/09/05 08:49:37;;;;;;;2.90;2.50;;;;;;;32.07;33.01;101697.60;108902;277;38315;-77
2023/09/05 08:52:12;;;;;;;4.00;2.50;;;;;;;32.44;32.96;101690.27;108917;277;38256;-76
2023/09/05 08:54:46;;;;;;;5.00;2.40;;;;;;;32.78;31.60;101691.54;108906;277;38660;-77
2023/09/05 08:57:19;;;;;;;3.20;2.30;;;;;;;33.08;30.81;101693.27;108933;277;39190;-75
2023/09/05 08:59:55;;;;;;;3.50;2.20;;;;;;;33.29;30.66;101694.48;108914;277;38258;-77
2023/09/05 09:02:29;;;;;;;5.30;2.70;;;;;;;33.42;30.59;101694.08;108811;277;171327;-76
2023/09/05 09:05:04;;;;;;;2.50;2.10;;;;;;;33.38;30.15;101693.23;108908;277;38259;-76
2023/09/05 09:07:41;;;;;;;3.30;2.30;;;;;;;33.38;29.92;101689.72;108913;277;39151;-74
2023/09/05 09:10:23;;;;;;;5.10;2.40;;;;;;;33.21;29.07;101687.29;108287;277;881262;-75
2023/09/05 09:13:13;;;;;;;3.20;2.20;;;;;;;33.03;30.39;101686.06;108895;277;38327;-77
2023/09/05 09:15:47;;;;;;;3.80;2.10;;;;;;;32.99;30.23;101683.66;108874;277;38724;-76
2023/09/05 09:18:22;;;;;;;3.00;2.20;;;;;;;32.93;30.64;101682.78;108906;277;40735;-77
2023/09/05 09:20:59;;;;;;;4.60;2.50;;;;;;;32.74;29.87;101685.35;108915;277;40018;-75
2023/09/05 09:23:35;;;;;;;4.50;2.00;;;;;;;32.61;30.41;101680.77;108933;277;38752;-76
2023/09/05 09:26:10;;;;;;;3.20;2.10;;;;;;;32.71;30.67;101681.33;108932;277;38760;-78
2023/09/05 09:28:43;;;;;;;5.60;2.40;;;;;;;32.85;30.01;101679.49;108909;277;39005;-77
2023/09/05 09:31:19;;;;;;;4.30;2.40;;;;;;;32.95;29.89;101681.36;108919;277;38735;-75
2023/09/05 09:34:00;;;;;;;2.90;2.40;;;;;;;33.11;30.34;101682.98;108892;277;40186;-76
2023/09/05 09:36:38;;;;;;;4.60;2.00;;;;;;;33.33;29.89;101679.89;108953;277;38263;-76
2023/09/05 09:39:13;;;;;;;4.80;2.40;;;;;;;33.32;29.27;101680.20;108926;277;38459;-76
2023/09/05 09:41:48;;;;;;;3.40;2.20;;;;;;;33.01;29.31;101679.75;108922;277;38463;-75
2023/09/05 09:44:32;;;;;;;3.10;2.30;;;;;;;32.56;29.90;101678.52;108913;277;39453;-74
2023/09/05 09:47:08;;;;;;;4.70;2.50;;;;;;;32.12;30.47;101676.27;108870;277;38553;-73
2023/09/05 09:49:44;;;;;;;5.40;2.30;;;;;;;31.56;29.53;101677.17;108945;277;39077;-74
2023/09/05 09:52:21;;;;;;;3.40;2.60;;;;;;;30.84;30.54;101677.03;108917;277;38497;-73
2023/09/05 09:54:56;;;;;;;3.50;2.30;;;;;;;30.40;31.69;101675.07;108906;277;38779;-73
2023/09/05 09:57:35;;;;;;;5.50;2.30;;;;;;;30.00;32.08;101670.98;108907;277;39373;-73
2023/09/05 10:00:15;;;;;;;3.10;2.20;;;;;;;29.48;32.20;101664.43;108897;277;38237;-73
2023/09/05 10:02:49;;;;;;;5.60;2.70;;;;;;;29.09;33.45;101661.52;108939;277;38182;-75
2023/09/05 10:05:24;;;;;;;3.40;2.30;;;;;;;28.76;32.62;101659.11;108994;277;38161;-75
2023/09/05 10:07:58;;;;;;;3.30;2.40;;;;;;;28.19;33.33;101653.10;108886;277;39281;-74
2023/09/05 10:10:32;;;;;;;4.10;2.10;;;;;;;27.95;35.05;101648.15;108950;277;38135;-71
2023/09/05 10:13:06;;;;;;;4.40;2.60;;;;;;;27.84;36.06;101648.44;108897;277;38615;-71
2023/09/05 10:15:41;;;;;;;4.90;2.50;;;;;;;27.79;36.26;101645.90;108935;277;38332;-75
2023/09/05 10:18:15;;;;;;;5.20;2.70;;;;;;;27.63;35.31;101646.53;108895;277;39332;-75
2023/09/05 10:20:50;;;;;;;4.00;2.40;;;;;;;27.48;36.37;101643.02;108931;277;38398;-74
2023/09/05 10:23:23;;;;;;;5.30;2.60;;;;;;;27.42;35.57;101640.74;108953;277;38827;-77
2023/09/05 10:25:57;;;;;;;3.30;2.20;;;;;;;27.18;36.06;101633.87;108829;277;38319;-73
2023/09/05 10:28:32;;;;;;;5.00;2.40;;;;;;;27.13;37.92;101632.35;108908;277;38402;-73
2023/09/05 10:31:12;;;;;;;4.80;2.50;;;;;;;27.09;37.84;101631.48;108937;277;38244;-73
2023/09/05 10:33:47;;;;;;;4.80;2.50;;;;;;;27.08;37.87;101632.63;108938;277;42216;-73
2023/09/05 10:36:47;;;;;;;3.80;2.50;;;;;;;27.07;37.69;101632.14;108953;277;39600;-73
2023/09/05 10:39:32;;;;;;;5.00;2.60;;;;;;;27.04;38.02;101632.95;108831;277;38472;-75
2023/09/05 10:42:07;;;;;;;3.40;2.30;;;;;;;27.01;37.89;101630.34;108961;277;38893;-73
2023/09/05 10:44:43;;;;;;;4.90;2.70;;;;;;;26.96;38.33;101626.45;108919;277;38428;-75
2023/09/05 10:47:33;;;;;;;4.30;2.40;;;;;;;26.86;37.47;101623.06;108922;277;39307;-76
2023/09/05 10:50:15;;;;;;;4.30;2.60;;;;;;;26.72;38.10;101620.67;108890;277;39717;-74
2023/09/05 10:52:49;;;;;;;4.40;2.70;;;;;;;26.71;38.06;101620.08;108856;277;40088;-73
2023/09/05 10:55:44;;;;;;;3.70;2.90;;;;;;;26.65;38.04;101617.18;108907;277;38407;-75
2023/09/05 10:58:42;;;;;;;4.70;2.70;;;;;;;26.57;37.56;101620.58;108884;277;39917;-73
2023/09/05 11:01:52;;;;;;;3.50;2.30;;;;;;;26.39;37.66;101617.78;108976;277;39416;-73
2023/09/05 11:04:29;;;;;;;4.70;2.50;;;;;;;26.21;37.64;101613.80;108900;277;38294;-73
2023/09/05 11:07:10;;;;;;;4.70;3.00;;;;;;;26.10;37.54;101612.16;108831;277;171824;-76
2023/09/05 11:09:54;;;;;;;3.80;2.60;;;;;;;25.97;38.64;101602.17;108876;277;38293;-73
2023/09/05 11:12:28;;;;;;;4.20;2.60;;;;;;;25.95;39.86;101595.23;108931;277;38327;-76
2023/09/05 11:15:04;;;;;;;4.10;2.50;;;;;;;25.95;39.81;101590.55;108928;277;38447;-75
2023/09/05 11:17:40;;;;;;;3.10;2.30;;;;;;;25.91;39.62;101586.10;108943;277;38828;-74
2023/09/05 11:20:18;;;;;;;3.90;2.70;;;;;;;25.87;39.81;101591.98;108897;277;39907;-74
2023/09/05 11:22:52;;;;;;;4.80;2.70;;;;;;;25.88;39.93;101590.95;108883;277;39356;-73
2023/09/05 11:25:27;;;;;;;6.10;2.30;;;;;;;25.87;39.29;101589.97;108847;277;38334;-74
2023/09/05 11:28:01;;;;;;;4.60;2.70;;;;;;;25.77;38.71;101585.44;108896;277;38462;-73
2023/09/05 11:30:37;;;;;;;4.80;2.40;;;;;;;25.69;38.86;101579.45;108971;277;38230;-75
2023/09/05 11:33:14;;;;;;;4.80;2.90;;;;;;;25.60;38.86;101578.45;108876;277;39745;-73
2023/09/05 11:35:49;;;;;;;3.70;2.20;;;;;;;25.55;39.43;101573.10;108942;277;38748;-76
2023/09/05 11:38:25;;;;;;;5.90;2.60;;;;;;;25.56;39.79;101572.33;108860;277;39602;-74
2023/09/05 11:41:05;;;;;;;6.30;2.60;;;;;;;25.49;39.30;101571.85;108943;277;38443;-73
2023/09/05 11:43:47;;;;;;;4.20;2.50;;;;;;;25.37;38.69;101566.24;108885;279;38190;-73
2023/09/05 11:46:20;;;;;;;4.40;2.70;;;;;;;25.19;38.13;101563.41;108881;279;39466;-74
2023/09/05 11:48:58;;;;;;;4.00;2.40;;;;;;;25.06;38.73;101559.73;108887;279;39704;-74
2023/09/05 11:51:32;;;;;;;5.80;3.10;;;;;;;25.03;39.57;101556.42;108873;279;38555;-75
2023/09/05 11:54:07;;;;;;;4.00;2.50;;;;;;;25.06;40.60;101552.77;108847;279;38541;-76
2023/09/05 11:56:42;;;;;;;3.20;2.60;;;;;;;25.12;40.49;101545.55;108859;279;38903;-76
2023/09/05 11:59:16;;;;;;;4.50;2.90;;;;;;;25.13;40.57;101542.77;108909;279;40116;-74
2023/09/05 12:01:51;;;;;;;4.20;3.00;;;;;;;25.11;40.79;101542.74;108938;278;38433;-74